createdAt,value
2017-03-30T00:00:35.985Z,73.50
2017-03-30T00:01:35.085Z,73.60
2017-03-30T00:02:33.937Z,73.60
2017-03-30T00:03:32.789Z,73.40
2017-03-30T00:04:31.492Z,73.40
2017-03-30T00:05:30.364Z,73.00
2017-03-30T00:06:29.172Z,73.00
2017-03-30T00:07:28.377Z,72.90
2017-03-30T00:08:27.216Z,72.90
2017-03-30T00:09:26.085Z,72.90
2017-03-30T00:10:24.917Z,72.80
2017-03-30T00:11:23.683Z,72.70
2017-03-30T00:12:22.475Z,72.90
2017-03-30T00:13:21.236Z,72.90
2017-03-30T00:14:20.080Z,73.90
2017-03-30T00:15:18.905Z,73.90
2017-03-30T00:16:17.729Z,73.70
2017-03-30T00:17:16.605Z,73.60
2017-03-30T00:18:15.441Z,73.60
2017-03-30T00:19:14.620Z,73.80
2017-03-30T00:20:13.609Z,74.20
2017-03-30T00:21:12.432Z,74.20
2017-03-30T00:22:10.845Z,74.20
2017-03-30T00:23:09.695Z,74.20
2017-03-30T00:24:08.535Z,74.40
2017-03-30T00:25:07.699Z,74.50
2017-03-30T00:26:06.525Z,74.40
2017-03-30T00:27:05.351Z,74.50
2017-03-30T00:28:04.144Z,74.50
2017-03-30T00:29:02.977Z,74.50
2017-03-30T00:30:01.802Z,74.50
2017-03-30T00:31:00.506Z,74.50
2017-03-30T00:31:59.340Z,74.40
2017-03-30T00:32:58.266Z,74.30
2017-03-30T00:33:57.068Z,74.10
2017-03-30T00:34:55.877Z,74.10
2017-03-30T00:35:54.689Z,74.00
2017-03-30T00:36:53.956Z,73.90
2017-03-30T00:37:52.725Z,73.70
2017-03-30T00:38:51.528Z,73.40
2017-03-30T00:39:50.335Z,73.30
2017-03-30T00:40:48.770Z,73.30
2017-03-30T00:41:47.148Z,73.30
2017-03-30T00:42:46.220Z,73.30
2017-03-30T00:43:45.020Z,73.20
2017-03-30T00:44:43.865Z,73.10
2017-03-30T00:45:42.712Z,73.20
2017-03-30T00:46:41.825Z,73.40
2017-03-30T00:47:40.625Z,73.50
2017-03-30T00:48:39.713Z,73.70
2017-03-30T00:49:38.537Z,74.00
2017-03-30T00:50:37.353Z,74.00
2017-03-30T00:51:36.270Z,74.10
2017-03-30T00:52:35.054Z,74.30
2017-03-30T00:53:33.886Z,74.40
2017-03-30T00:54:32.673Z,74.40
2017-03-30T00:55:31.499Z,74.50
2017-03-30T00:56:30.308Z,74.50
2017-03-30T00:57:29.132Z,74.60
2017-03-30T00:58:27.947Z,74.50
2017-03-30T00:59:26.773Z,74.50
2017-03-30T01:00:25.539Z,74.50
2017-03-30T01:01:24.401Z,74.60
2017-03-30T01:02:23.280Z,74.50
2017-03-30T01:03:21.752Z,74.50
2017-03-30T01:04:20.586Z,74.40
2017-03-30T01:05:19.424Z,74.30
2017-03-30T01:06:18.491Z,74.30
2017-03-30T01:07:17.297Z,74.00
2017-03-30T01:08:16.069Z,73.90
2017-03-30T01:09:15.267Z,73.90
2017-03-30T01:10:14.113Z,73.80
2017-03-30T01:11:13.056Z,73.80
2017-03-30T01:12:11.897Z,73.80
2017-03-30T01:13:10.705Z,73.60
2017-03-30T01:14:09.533Z,73.50
2017-03-30T01:15:07.952Z,73.50
2017-03-30T01:16:06.800Z,73.60
2017-03-30T01:17:05.672Z,73.70
2017-03-30T01:18:04.773Z,73.80
2017-03-30T01:19:03.582Z,74.00
2017-03-30T01:20:02.032Z,73.90
2017-03-30T01:21:00.456Z,74.30
2017-03-30T01:21:58.880Z,74.50
2017-03-30T01:22:57.689Z,74.90
2017-03-30T01:23:57.175Z,75.10
2017-03-30T01:24:55.956Z,75.10
2017-03-30T01:25:54.797Z,75.10
2017-03-30T01:26:53.673Z,75.10
2017-03-30T01:27:52.453Z,75.30
2017-03-30T01:28:50.870Z,75.30
2017-03-30T01:29:49.979Z,75.30
2017-03-30T01:30:48.785Z,75.40
2017-03-30T01:31:47.578Z,75.40
2017-03-30T01:32:46.385Z,75.30
2017-03-30T01:33:45.259Z,75.40
2017-03-30T01:34:44.073Z,75.40
2017-03-30T01:35:43.189Z,75.60
2017-03-30T01:36:42.005Z,75.80
2017-03-30T01:37:40.828Z,76.10
2017-03-30T01:38:39.238Z,76.10
2017-03-30T01:39:37.641Z,76.20
2017-03-30T01:40:36.456Z,76.50
2017-03-30T01:41:35.654Z,76.60
2017-03-30T01:42:34.468Z,76.70
2017-03-30T01:43:32.865Z,76.70
2017-03-30T01:44:31.694Z,77.00
2017-03-30T01:45:30.519Z,77.00
2017-03-30T01:46:29.322Z,77.10
2017-03-30T01:47:28.417Z,77.20
2017-03-30T01:48:27.254Z,77.40
2017-03-30T01:49:26.095Z,77.50
2017-03-30T01:50:25.001Z,77.60
2017-03-30T01:51:23.445Z,77.60
2017-03-30T01:52:22.265Z,77.50
2017-03-30T01:53:21.501Z,77.50
2017-03-30T01:54:20.337Z,77.60
2017-03-30T01:55:18.880Z,77.60
2017-03-30T01:56:17.757Z,77.90
2017-03-30T01:57:16.649Z,78.00
2017-03-30T01:58:15.656Z,78.00
2017-03-30T01:59:14.331Z,78.00
2017-03-30T02:00:12.825Z,78.00
2017-03-30T02:01:11.979Z,78.30
2017-03-30T02:02:10.790Z,78.60
2017-03-30T02:03:09.597Z,78.70
2017-03-30T02:04:08.445Z,78.70
2017-03-30T02:05:07.649Z,78.70
2017-03-30T02:06:06.104Z,78.70
2017-03-30T02:07:04.941Z,78.60
2017-03-30T02:08:03.808Z,78.60
2017-03-30T02:09:02.336Z,78.60
2017-03-30T02:10:01.125Z,78.90
2017-03-30T02:10:59.836Z,78.90
2017-03-30T02:11:58.624Z,79.00
2017-03-30T02:12:57.024Z,79.00
2017-03-30T02:13:55.836Z,78.70
2017-03-30T02:14:54.661Z,78.80
2017-03-30T02:15:53.460Z,78.70
2017-03-30T02:16:52.565Z,78.70
2017-03-30T02:17:51.342Z,78.60
2017-03-30T02:18:50.192Z,78.60
2017-03-30T02:19:48.993Z,78.40
2017-03-30T02:20:47.800Z,78.30
2017-03-30T02:21:46.579Z,78.30
2017-03-30T02:22:45.756Z,78.30
2017-03-30T02:23:44.151Z,78.30
2017-03-30T02:24:42.945Z,78.30
2017-03-30T02:25:41.753Z,78.20
2017-03-30T02:26:40.560Z,78.10
2017-03-30T02:27:39.376Z,78.00
2017-03-30T02:28:38.593Z,77.90
2017-03-30T02:29:37.004Z,77.90
2017-03-30T02:30:35.872Z,77.80
2017-03-30T02:31:34.739Z,77.80
2017-03-30T02:32:33.546Z,77.60
2017-03-30T02:33:31.943Z,77.60
2017-03-30T02:34:31.088Z,77.60
2017-03-30T02:35:29.536Z,77.60
2017-03-30T02:36:28.343Z,77.60
2017-03-30T02:37:27.164Z,77.50
2017-03-30T02:38:25.974Z,77.40
2017-03-30T02:39:24.778Z,77.40
2017-03-30T02:40:23.854Z,77.40
2017-03-30T02:41:30.509Z,77.50
2017-03-30T07:20:30.068Z,75.80
2017-03-30T07:21:28.862Z,75.20
2017-03-30T07:22:27.317Z,75.20
2017-03-30T07:23:26.146Z,75.20
2017-03-30T07:24:24.937Z,75.30
2017-03-30T07:25:23.366Z,75.20
2017-03-30T07:26:22.489Z,74.00
2017-03-30T07:27:21.311Z,73.70
2017-03-30T07:28:20.153Z,73.60
2017-03-30T07:29:19.000Z,72.80
2017-03-30T07:30:17.869Z,72.50
2017-03-30T07:31:17.137Z,71.70
2017-03-30T07:32:16.309Z,71.50
2017-03-30T07:33:15.154Z,71.70
2017-03-30T07:34:13.945Z,71.60
2017-03-30T07:35:12.824Z,71.30
2017-03-30T07:36:11.682Z,71.00
2017-03-30T07:37:10.605Z,70.90
2017-03-30T07:38:09.795Z,70.60
2017-03-30T07:39:08.653Z,70.40
2017-03-30T07:40:08.155Z,70.10
2017-03-30T07:41:07.025Z,69.90
2017-03-30T07:42:05.853Z,70.10
2017-03-30T07:43:04.688Z,69.90
2017-03-30T07:46:50.025Z,70.00
2017-03-30T07:47:48.869Z,69.20
2017-03-30T07:48:47.717Z,69.40
2017-03-30T07:49:46.148Z,69.40
2017-03-30T07:50:45.065Z,69.60
2017-03-30T07:51:44.255Z,69.60
2017-03-30T07:52:43.513Z,69.30
2017-03-30T07:53:42.272Z,69.20
2017-03-30T07:54:41.083Z,69.40
2017-03-30T07:55:40.301Z,69.70
2017-03-30T07:56:39.101Z,69.90
2017-03-30T07:57:37.964Z,69.90
2017-03-30T07:58:37.099Z,70.30
2017-03-30T07:59:35.894Z,70.10
2017-03-30T08:00:34.773Z,70.40
2017-03-30T08:01:33.620Z,70.70
2017-03-30T08:02:32.428Z,70.80
2017-03-30T08:03:31.300Z,70.80
2017-03-30T08:04:30.908Z,70.90
2017-03-30T08:05:29.739Z,70.70
2017-03-30T08:06:28.765Z,70.90
2017-03-30T08:07:27.495Z,70.90
2017-03-30T08:08:26.277Z,70.70
2017-03-30T08:09:25.653Z,71.30
2017-03-30T08:10:24.984Z,70.90
2017-03-30T08:11:24.099Z,71.00
2017-03-30T08:12:23.259Z,71.20
2017-03-30T08:13:22.340Z,71.40
2017-03-30T08:14:21.556Z,71.30
2017-03-30T08:15:20.679Z,71.40
2017-03-30T08:16:20.128Z,71.30
2017-03-30T08:17:19.951Z,71.30
2017-03-30T08:18:19.214Z,71.10
2017-03-30T08:19:18.358Z,71.00
2017-03-30T08:20:17.560Z,71.40
2017-03-30T08:21:16.737Z,71.30
2017-03-30T08:22:16.192Z,71.20
2017-03-30T08:23:15.320Z,71.40
2017-03-30T08:24:14.441Z,71.50
2017-03-30T08:25:13.662Z,71.40
2017-03-30T08:26:12.413Z,71.40
2017-03-30T08:27:11.532Z,71.10
2017-03-30T08:28:10.850Z,71.30
2017-03-30T08:29:09.966Z,71.20
2017-03-30T08:30:09.092Z,71.40
2017-03-30T08:31:08.211Z,71.30
2017-03-30T08:32:07.281Z,71.60
2017-03-30T08:33:06.457Z,71.40
2017-03-30T08:34:05.792Z,71.20
2017-03-30T08:35:04.959Z,71.10
2017-03-30T08:36:04.184Z,71.10
2017-03-30T08:37:02.816Z,71.20
2017-03-30T08:38:01.969Z,71.10
2017-03-30T08:39:01.135Z,70.80
2017-03-30T08:40:00.923Z,70.50
2017-03-30T08:41:00.017Z,70.40
2017-03-30T08:41:59.147Z,70.60
2017-03-30T08:42:58.252Z,70.60
2017-03-30T08:43:56.990Z,70.60
2017-03-30T08:44:55.708Z,70.90
2017-03-30T08:45:55.149Z,70.60
2017-03-30T08:46:54.261Z,70.60
2017-03-30T08:47:53.491Z,70.70
2017-03-30T08:48:52.583Z,70.40
2017-03-30T08:49:51.859Z,70.50
2017-03-30T08:50:50.316Z,70.50
2017-03-30T08:51:49.425Z,70.60
2017-03-30T08:52:48.319Z,70.40
2017-03-30T08:53:47.495Z,70.60
2017-03-30T08:54:46.312Z,70.70
2017-03-30T08:55:45.513Z,70.30
2017-03-30T08:56:44.198Z,70.30
2017-03-30T08:57:43.440Z,69.80
2017-03-30T08:58:43.212Z,70.30
2017-03-30T08:59:41.867Z,70.30
2017-03-30T09:00:40.768Z,70.30
2017-03-30T09:01:39.922Z,70.20
2017-03-30T09:02:39.087Z,70.50
2017-03-30T09:03:38.585Z,70.20
2017-03-30T09:04:37.682Z,70.20
2017-03-30T09:05:36.759Z,69.80
2017-03-30T09:06:35.853Z,69.80
2017-03-30T09:07:34.964Z,69.70
2017-03-30T09:08:33.988Z,69.60
2017-03-30T09:09:33.139Z,69.70
2017-03-30T09:10:31.916Z,69.70
2017-03-30T09:11:30.798Z,69.40
2017-03-30T09:12:29.544Z,69.50
2017-03-30T09:13:28.313Z,69.60
2017-03-30T09:14:27.705Z,69.70
2017-03-30T09:15:27.021Z,69.30
2017-03-30T09:16:25.808Z,69.40
2017-03-30T09:17:25.178Z,69.20
2017-03-30T09:18:23.996Z,69.10
2017-03-30T09:19:22.877Z,68.80
2017-03-30T09:20:21.719Z,68.80
2017-03-30T09:21:20.868Z,68.40
2017-03-30T09:22:19.674Z,68.50
2017-03-30T09:23:18.505Z,68.50
2017-03-30T09:24:17.681Z,68.80
2017-03-30T09:25:16.496Z,68.20
2017-03-30T09:26:15.675Z,68.10
2017-03-30T09:27:14.427Z,68.10
2017-03-30T09:28:13.659Z,68.80
2017-03-30T09:29:12.874Z,68.20
2017-03-30T09:30:11.764Z,67.60
2017-03-30T09:31:10.512Z,67.60
2017-03-30T09:32:09.696Z,67.70
2017-03-30T09:33:08.724Z,67.70
2017-03-30T09:34:08.218Z,67.40
2017-03-30T09:35:07.427Z,67.30
2017-03-30T09:36:06.152Z,67.30
2017-03-30T09:37:05.943Z,67.30
2017-03-30T09:38:04.722Z,67.70
2017-03-30T09:39:04.242Z,67.20
2017-03-30T09:40:02.717Z,67.20
2017-03-30T09:41:01.520Z,66.70
2017-03-30T09:42:00.228Z,66.70
2017-03-30T09:42:59.288Z,66.60
2017-03-30T09:43:58.351Z,66.60
2017-03-30T09:44:59.259Z,66.60
2017-03-30T09:45:58.498Z,67.10
2017-03-30T09:46:57.334Z,67.30
2017-03-30T09:47:56.128Z,67.10
2017-03-30T09:48:54.910Z,66.70
2017-03-30T09:49:53.771Z,67.10
2017-03-30T09:50:55.615Z,67.20
2017-03-30T09:51:54.364Z,67.10
2017-03-30T09:52:53.154Z,67.00
2017-03-30T09:53:52.420Z,67.20
2017-03-30T09:54:51.172Z,67.20
2017-03-30T09:55:49.931Z,67.30
2017-03-30T09:56:49.104Z,67.40
2017-03-30T09:57:47.899Z,67.20
2017-03-30T09:58:46.858Z,66.90
2017-03-30T09:59:46.131Z,67.00
2017-03-30T10:00:45.381Z,67.10
2017-03-30T10:01:44.402Z,66.70
2017-03-30T10:02:43.611Z,66.60
2017-03-30T10:03:42.369Z,66.70
2017-03-30T10:04:41.171Z,66.60
2017-03-30T10:05:39.926Z,66.40
2017-03-30T10:06:39.095Z,66.60
2017-03-30T10:07:38.038Z,66.30
2017-03-30T10:08:37.233Z,66.00
2017-03-30T10:09:36.503Z,66.10
2017-03-30T10:10:35.484Z,66.10
2017-03-30T10:11:34.228Z,65.90
2017-03-30T10:12:34.890Z,66.30
2017-03-30T10:13:35.104Z,66.30
2017-03-30T10:14:34.500Z,65.60
2017-03-30T10:15:33.534Z,66.20
2017-03-30T10:16:32.176Z,66.20
2017-03-30T10:17:30.971Z,65.40
2017-03-30T10:18:29.580Z,65.40
2017-03-30T10:19:28.687Z,65.60
2017-03-30T10:20:28.055Z,65.50
2017-03-30T10:21:27.074Z,65.30
2017-03-30T10:22:26.052Z,64.90
2017-03-30T10:23:25.193Z,65.10
2017-03-30T10:24:25.451Z,64.70
2017-03-30T10:25:25.021Z,64.90
2017-03-30T10:26:24.312Z,65.40
2017-03-30T10:27:23.210Z,65.80
2017-03-30T10:28:22.092Z,64.90
2017-03-30T10:29:20.917Z,65.00
2017-03-30T10:30:19.739Z,64.90
2017-03-30T10:31:19.258Z,64.70
2017-03-30T10:32:18.224Z,64.60
2017-03-30T10:33:16.775Z,64.40
2017-03-30T10:34:15.581Z,64.20
2017-03-30T10:35:14.403Z,64.60
2017-03-30T10:36:12.845Z,64.60
2017-03-30T10:37:11.697Z,64.30
2017-03-30T10:38:11.282Z,64.80
2017-03-30T10:39:09.706Z,64.80
2017-03-30T10:40:08.136Z,64.00
2017-03-30T10:41:06.959Z,63.90
2017-03-30T10:42:05.755Z,63.90
2017-03-30T10:43:04.690Z,64.50
2017-03-30T10:44:03.848Z,64.30
2017-03-30T10:45:02.639Z,64.00
2017-03-30T10:46:01.243Z,64.00
2017-03-30T10:47:00.011Z,64.40
2017-03-30T10:47:58.819Z,64.50
2017-03-30T10:48:57.672Z,64.70
2017-03-30T10:49:56.391Z,64.70
2017-03-30T10:50:54.839Z,64.80
2017-03-30T10:51:53.629Z,64.40
2017-03-30T10:52:52.400Z,64.40
2017-03-30T10:53:51.274Z,64.30
2017-03-30T10:54:50.129Z,64.40
2017-03-30T10:55:49.264Z,64.40
2017-03-30T10:56:48.253Z,64.30
2017-03-30T10:57:47.981Z,64.60
2017-03-30T10:58:47.191Z,64.40
2017-03-30T10:59:45.832Z,64.40
2017-03-30T11:00:44.894Z,63.90
2017-03-30T11:01:44.795Z,63.90
2017-03-30T11:02:43.876Z,64.00
2017-03-30T11:03:42.778Z,64.40
2017-03-30T11:04:41.564Z,64.40
2017-03-30T11:05:40.691Z,65.00
2017-03-30T11:06:39.076Z,65.00
2017-03-30T11:07:38.284Z,64.70
2017-03-30T11:08:37.259Z,64.20
2017-03-30T11:09:35.766Z,64.20
2017-03-30T11:10:34.627Z,64.00
2017-03-30T11:11:33.423Z,63.60
2017-03-30T11:12:32.255Z,63.60
2017-03-30T11:13:31.592Z,63.20
2017-03-30T11:14:30.835Z,63.60
2017-03-30T11:15:29.972Z,63.40
2017-03-30T11:16:29.031Z,63.30
2017-03-30T11:17:28.077Z,63.10
2017-03-30T11:18:27.109Z,63.30
2017-03-30T11:19:26.475Z,63.80
2017-03-30T11:20:25.421Z,63.50
2017-03-30T11:21:24.558Z,63.30
2017-03-30T11:22:23.844Z,63.40
2017-03-30T11:23:22.989Z,63.30
2017-03-30T11:24:21.932Z,63.50
2017-03-30T11:25:21.079Z,62.50
2017-03-30T11:26:19.871Z,63.20
2017-03-30T11:27:18.875Z,63.00
2017-03-30T11:28:18.236Z,63.00
2017-03-30T11:29:17.260Z,62.40
2017-03-30T11:30:15.862Z,62.40
2017-03-30T11:31:15.165Z,62.50
2017-03-30T11:32:14.168Z,62.00
2017-03-30T11:33:13.377Z,62.00
2017-03-30T11:34:12.263Z,62.10
2017-03-30T11:35:11.318Z,62.60
2017-03-30T11:36:10.212Z,62.50
2017-03-30T11:37:09.582Z,62.60
2017-03-30T11:38:08.947Z,62.60
2017-03-30T11:39:07.961Z,62.60
2017-03-30T11:40:08.125Z,62.50
2017-03-30T11:41:07.160Z,63.30
2017-03-30T11:42:06.197Z,63.10
2017-03-30T11:43:05.772Z,63.20
2017-03-30T11:44:04.792Z,62.70
2017-03-30T11:45:03.819Z,62.30
2017-03-30T11:46:02.871Z,61.70
2017-03-30T11:47:02.093Z,61.40
2017-03-30T11:48:01.201Z,61.20
2017-03-30T11:49:00.363Z,61.10
2017-03-30T11:49:59.271Z,61.40
2017-03-30T11:50:58.056Z,61.80
2017-03-30T11:51:57.026Z,61.80
2017-03-30T11:52:57.893Z,62.50
2017-03-30T11:53:56.782Z,62.10
2017-03-30T11:54:56.300Z,61.50
2017-03-30T11:55:55.241Z,62.30
2017-03-30T11:56:54.289Z,61.80
2017-03-30T11:57:53.411Z,61.50
2017-03-30T11:58:52.725Z,61.40
2017-03-30T11:59:52.019Z,61.60
2017-03-30T12:00:51.331Z,61.80
2017-03-30T12:01:50.416Z,61.50
2017-03-30T12:02:48.890Z,61.60
2017-03-30T12:03:48.327Z,61.50
2017-03-30T12:04:47.192Z,61.90
2017-03-30T12:05:46.229Z,61.40
2017-03-30T12:06:45.894Z,61.50
2017-03-30T12:08:53.650Z,61.50
2017-03-30T12:09:52.381Z,61.50
2017-03-30T12:10:52.204Z,61.50
2017-03-30T12:11:52.007Z,61.20
2017-03-30T12:12:51.176Z,61.20
2017-03-30T12:13:50.191Z,60.60
2017-03-30T12:14:49.520Z,60.90
2017-03-30T12:15:48.536Z,61.10
2017-03-30T12:16:47.591Z,60.60
2017-03-30T12:17:46.860Z,60.50
2017-03-30T12:18:46.057Z,61.10
2017-03-30T12:19:44.651Z,61.10
2017-03-30T12:20:43.697Z,61.40
2017-03-30T12:21:42.513Z,61.40
2017-03-30T12:22:41.688Z,60.80
2017-03-30T12:23:41.023Z,60.80
2017-03-30T12:24:39.908Z,60.70
2017-03-30T12:25:38.800Z,60.70
2017-03-30T12:26:37.862Z,60.60
2017-03-30T12:27:36.553Z,60.60
2017-03-30T12:28:35.133Z,60.20
2017-03-30T12:29:33.991Z,60.20
2017-03-30T12:30:33.061Z,60.90
2017-03-30T12:31:32.072Z,60.40
2017-03-30T12:32:31.146Z,60.20
2017-03-30T12:33:30.400Z,60.70
2017-03-30T12:34:29.440Z,60.90
2017-03-30T12:35:28.718Z,60.40
2017-03-30T12:36:27.326Z,60.40
2017-03-30T12:37:26.359Z,60.70
2017-03-30T12:38:28.139Z,61.00
2017-03-30T12:39:27.154Z,61.40
2017-03-30T12:40:26.251Z,61.10
2017-03-30T12:41:25.649Z,61.10
2017-03-30T12:42:24.880Z,61.60
2017-03-30T12:43:24.023Z,61.50
2017-03-30T12:44:23.031Z,61.30
2017-03-30T12:45:22.780Z,61.20
2017-03-30T12:46:21.977Z,61.10
2017-03-30T12:47:21.199Z,60.90
2017-03-30T12:48:20.820Z,60.90
2017-03-30T12:49:20.031Z,61.40
2017-03-30T12:50:19.063Z,61.30
2017-03-30T12:51:18.052Z,61.30
2017-03-30T12:52:16.693Z,61.30
2017-03-30T12:53:16.019Z,60.90
2017-03-30T12:54:15.059Z,61.10
2017-03-30T12:55:14.124Z,61.50
2017-03-30T12:56:13.791Z,61.60
2017-03-30T12:57:12.351Z,61.60
2017-03-30T12:58:11.026Z,61.60
2017-03-30T12:59:10.613Z,61.20
2017-03-30T13:00:09.720Z,61.30
2017-03-30T13:01:08.985Z,61.20
2017-03-30T13:02:07.997Z,61.40
2017-03-30T13:03:07.107Z,61.20
2017-03-30T13:04:06.155Z,61.20
2017-03-30T13:05:05.653Z,61.10
2017-03-30T13:06:04.747Z,60.90
2017-03-30T13:07:03.821Z,61.20
2017-03-30T13:08:02.616Z,61.20
2017-03-30T13:09:01.693Z,60.90
2017-03-30T13:10:00.780Z,60.50
2017-03-30T13:11:00.138Z,60.90
2017-03-30T13:11:59.573Z,60.30
2017-03-30T13:12:58.678Z,60.60
2017-03-30T13:13:57.829Z,60.60
2017-03-30T13:14:56.555Z,60.60
2017-03-30T13:15:55.605Z,60.40
2017-03-30T13:16:54.593Z,60.40
2017-03-30T13:17:53.379Z,60.40
2017-03-30T13:18:52.069Z,60.30
2017-03-30T13:19:50.704Z,60.30
2017-03-30T13:20:49.633Z,60.50
2017-03-30T13:21:48.734Z,60.70
2017-03-30T13:22:48.032Z,60.70
2017-03-30T13:23:47.229Z,60.40
2017-03-30T13:24:46.315Z,60.90
2017-03-30T13:25:45.413Z,60.60
2017-03-30T13:26:44.530Z,60.80
2017-03-30T13:27:43.986Z,60.70
2017-03-30T13:28:43.262Z,60.40
2017-03-30T13:29:42.260Z,60.50
2017-03-30T13:30:40.728Z,60.50
2017-03-30T13:31:39.224Z,60.80
2017-03-30T13:32:38.167Z,60.80
2017-03-30T13:33:37.040Z,60.80
2017-03-30T13:34:36.230Z,60.80
2017-03-30T13:35:35.014Z,60.60
2017-03-30T13:36:33.828Z,60.70
2017-03-30T13:37:32.653Z,60.50
2017-03-30T13:38:31.508Z,60.50
2017-03-30T13:39:30.419Z,60.50
2017-03-30T13:40:29.720Z,60.40
2017-03-30T13:41:28.621Z,60.60
2017-03-30T13:42:27.573Z,60.40
2017-03-30T13:43:26.601Z,60.40
2017-03-30T13:44:25.557Z,60.50
2017-03-30T13:45:24.468Z,60.40
2017-03-30T13:46:23.298Z,60.40
2017-03-30T13:47:22.886Z,60.70
2017-03-30T13:48:21.866Z,60.40
2017-03-30T13:49:20.804Z,60.30
2017-03-30T13:50:19.864Z,60.50
2017-03-30T13:51:18.793Z,59.90
2017-03-30T13:52:18.007Z,60.10
2017-03-30T13:53:17.042Z,60.20
2017-03-30T13:54:15.986Z,60.30
2017-03-30T13:55:14.961Z,59.90
2017-03-30T13:56:13.836Z,60.00
2017-03-30T13:57:12.816Z,60.00
2017-03-30T13:58:12.008Z,60.00
2017-03-30T13:59:10.919Z,60.10
2017-03-30T14:00:09.816Z,59.90
2017-03-30T14:01:08.721Z,60.20
2017-03-30T14:02:07.544Z,59.90
2017-03-30T14:03:06.384Z,59.70
2017-03-30T14:04:05.583Z,59.80
2017-03-30T14:05:04.427Z,59.70
2017-03-30T14:06:03.425Z,59.60
2017-03-30T14:07:02.318Z,59.70
2017-03-30T14:08:01.288Z,59.80
2017-03-30T14:09:00.169Z,60.50
2017-03-30T14:09:59.328Z,60.70
2017-03-30T14:10:58.255Z,60.40
2017-03-30T14:11:57.165Z,59.70
2017-03-30T14:12:56.015Z,60.10
2017-03-30T14:13:54.944Z,59.70
2017-03-30T14:14:53.418Z,59.70
2017-03-30T14:15:52.660Z,59.60
2017-03-30T14:16:51.567Z,59.40
2017-03-30T14:17:50.417Z,59.00
2017-03-30T14:18:49.567Z,59.40
2017-03-30T14:19:48.521Z,59.90
2017-03-30T14:20:47.373Z,60.30
2017-03-30T14:21:46.521Z,60.20
2017-03-30T14:22:45.367Z,60.20
2017-03-30T14:23:44.308Z,60.00
2017-03-30T14:24:43.243Z,59.90
2017-03-30T14:25:42.152Z,59.80
2017-03-30T14:26:41.132Z,60.00
2017-03-30T14:27:39.909Z,60.00
2017-03-30T14:28:38.795Z,60.50
2017-03-30T14:29:37.659Z,60.80
2017-03-30T14:30:36.680Z,60.60
2017-03-30T14:31:35.611Z,60.10
2017-03-30T14:32:34.607Z,60.30
2017-03-30T14:33:33.715Z,61.00
2017-03-30T14:34:32.661Z,60.80
2017-03-30T14:35:31.548Z,59.90
2017-03-30T14:36:30.452Z,60.20
2017-03-30T14:37:29.377Z,59.90
2017-03-30T14:38:28.247Z,60.10
2017-03-30T14:39:27.411Z,60.10
2017-03-30T14:40:26.276Z,60.20
2017-03-30T14:41:25.173Z,59.80
2017-03-30T14:42:24.088Z,59.40
2017-03-30T14:43:23.177Z,59.40
2017-03-30T14:44:22.035Z,59.90
2017-03-30T14:45:21.319Z,59.90
2017-03-30T14:46:19.980Z,59.90
2017-03-30T14:48:58.359Z,59.70
2017-03-30T14:51:39.833Z,59.50
2017-03-30T14:52:51.870Z,59.90
2017-03-30T14:54:11.787Z,59.80
2017-03-30T15:00:22.077Z,59.10
2017-03-30T15:01:27.410Z,58.50
2017-03-30T15:02:50.376Z,58.70
2017-03-30T15:04:07.949Z,58.70
2017-03-30T15:06:56.280Z,58.40
2017-03-30T15:09:31.879Z,57.50
2017-03-30T15:10:46.030Z,58.40
2017-03-30T15:11:58.903Z,57.80
2017-03-30T15:14:21.984Z,57.00
2017-03-30T15:15:39.382Z,57.10
2017-03-30T15:17:58.074Z,57.30
2017-03-30T15:19:02.859Z,57.00
2017-03-30T15:20:02.564Z,57.00
2017-03-30T15:23:37.878Z,57.00
2017-03-30T15:24:41.411Z,57.00
2017-03-30T15:25:42.503Z,56.80
2017-03-30T15:26:50.447Z,56.70
2017-03-30T15:27:54.735Z,56.60
2017-03-30T15:29:00.123Z,56.70
2017-03-30T15:30:15.318Z,56.70
2017-03-30T15:31:22.506Z,57.00
2017-03-30T15:32:34.104Z,57.30
2017-03-30T15:33:44.960Z,57.50
2017-03-30T15:34:50.048Z,58.00
2017-03-30T15:37:15.910Z,57.70
2017-03-30T15:38:26.868Z,57.20
2017-03-30T15:39:28.414Z,57.20
2017-03-30T15:40:31.500Z,57.60
2017-03-30T15:41:37.353Z,57.90
2017-03-30T15:42:55.237Z,57.70
2017-03-30T15:43:57.935Z,57.20
2017-03-30T15:45:11.156Z,56.60
2017-03-30T15:46:30.935Z,56.10
2017-03-30T15:47:45.608Z,56.10
2017-03-30T15:50:09.442Z,57.30
2017-03-30T15:51:13.727Z,56.60
2017-03-30T15:52:19.639Z,56.40
2017-03-30T15:53:21.256Z,56.70
2017-03-30T15:54:22.121Z,56.90
2017-03-30T15:55:31.281Z,56.80
2017-03-30T15:56:51.871Z,57.50
2017-03-30T15:58:17.916Z,56.80
2017-03-30T15:59:20.232Z,56.80
2017-03-30T16:00:19.818Z,57.30
2017-03-30T16:01:33.098Z,57.20
2017-03-30T16:03:52.231Z,56.70
2017-03-30T16:04:58.839Z,57.20
2017-03-30T16:07:27.952Z,57.20
2017-03-30T16:08:27.084Z,56.90
2017-03-30T16:09:25.545Z,56.90
2017-03-30T16:10:24.130Z,57.00
2017-03-30T16:11:22.584Z,56.80
2017-03-30T16:12:21.479Z,57.40
2017-03-30T16:13:20.287Z,57.30
2017-03-30T16:14:19.368Z,57.00
2017-03-30T16:15:17.864Z,57.00
2017-03-30T16:16:16.689Z,57.60
2017-03-30T16:17:23.637Z,57.60
2017-03-30T16:18:22.449Z,56.50
2017-03-30T16:19:21.564Z,56.90
2017-03-30T16:20:20.396Z,57.10
2017-03-30T16:21:19.175Z,57.60
2017-03-30T16:22:17.616Z,57.60
2017-03-30T16:23:16.045Z,57.50
2017-03-30T16:24:14.821Z,57.00
2017-03-30T16:25:13.652Z,57.00
2017-03-30T16:26:12.107Z,57.50
2017-03-30T16:27:13.825Z,56.80
2017-03-30T16:28:12.620Z,56.60
2017-03-30T16:29:11.439Z,57.40
2017-03-30T16:30:09.841Z,57.40
2017-03-30T16:31:08.956Z,56.80
2017-03-30T16:32:07.756Z,56.70
2017-03-30T16:33:06.587Z,56.90
2017-03-30T16:34:05.376Z,56.50
2017-03-30T16:35:04.223Z,56.90
2017-03-30T16:36:02.984Z,56.30
2017-03-30T16:37:01.729Z,56.30
2017-03-30T16:38:00.537Z,57.10
2017-03-30T16:38:59.001Z,57.10
2017-03-30T16:39:58.211Z,57.00
2017-03-30T16:40:56.991Z,56.90
2017-03-30T16:41:55.824Z,56.70
2017-03-30T16:42:54.610Z,56.70
2017-03-30T16:43:53.436Z,56.10
2017-03-30T16:44:52.216Z,56.40
2017-03-30T16:45:51.055Z,56.50
2017-03-30T16:46:49.888Z,56.10
2017-03-30T16:47:48.669Z,56.10
2017-03-30T16:48:47.733Z,56.50
2017-03-30T16:49:46.110Z,56.50
2017-03-30T16:50:44.923Z,56.60
2017-03-30T16:51:43.736Z,56.90
2017-03-30T16:52:42.592Z,57.10
2017-03-30T16:53:41.494Z,57.10
2017-03-30T16:54:40.651Z,57.70
2017-03-30T16:55:39.716Z,57.90
2017-03-30T16:56:38.656Z,57.60
2017-03-30T16:57:37.639Z,57.50
2017-03-30T16:58:36.504Z,57.50
2017-03-30T16:59:35.384Z,57.50
2017-03-30T17:00:34.745Z,57.60
2017-03-30T17:01:33.204Z,57.60
2017-03-30T17:02:32.477Z,58.00
2017-03-30T17:03:31.490Z,57.80
2017-03-30T17:04:30.447Z,57.80
2017-03-30T17:05:29.624Z,58.10
2017-03-30T17:06:28.860Z,58.00
2017-03-30T17:07:27.873Z,58.10
2017-03-30T17:08:26.988Z,58.30
2017-03-30T17:09:25.963Z,58.30
2017-03-30T17:10:25.391Z,58.80
2017-03-30T17:11:24.412Z,59.00
2017-03-30T17:12:23.870Z,58.90
2017-03-30T17:13:22.811Z,59.00
2017-03-30T17:14:21.359Z,59.00
2017-03-30T17:15:20.294Z,59.20
2017-03-30T17:16:19.412Z,59.20
2017-03-30T17:17:18.585Z,59.20
2017-03-30T17:18:18.342Z,59.30
2017-03-30T17:19:17.516Z,59.40
2017-03-30T17:20:16.641Z,59.30
2017-03-30T17:21:15.831Z,59.50
2017-03-30T17:22:14.826Z,59.80
2017-03-30T17:23:14.309Z,60.00
2017-03-30T17:24:13.260Z,60.00
2017-03-30T17:25:12.361Z,59.60
2017-03-30T17:26:11.420Z,59.80
2017-03-30T17:27:10.604Z,59.70
2017-03-30T17:28:09.688Z,59.90
2017-03-30T17:29:08.825Z,60.00
2017-03-30T17:30:08.101Z,59.80
2017-03-30T17:31:07.217Z,59.90
2017-03-30T17:32:06.350Z,60.20
2017-03-30T17:33:04.955Z,60.20
2017-03-30T17:34:04.036Z,60.50
2017-03-30T17:35:03.130Z,60.50
2017-03-30T17:36:02.516Z,60.30
2017-03-30T17:37:01.709Z,60.50
2017-03-30T17:38:00.401Z,60.50
2017-03-30T17:38:59.417Z,60.80
2017-03-30T17:39:58.552Z,60.80
2017-03-30T17:40:58.269Z,60.80
2017-03-30T17:41:57.224Z,60.80
2017-03-30T17:42:56.649Z,60.90
2017-03-30T17:43:55.709Z,60.90
2017-03-30T17:44:54.425Z,60.90
2017-03-30T17:45:53.633Z,61.30
2017-03-30T17:46:52.800Z,61.60
2017-03-30T17:47:52.144Z,61.70
2017-03-30T17:48:50.851Z,61.70
2017-03-30T17:49:49.297Z,61.80
2017-03-30T17:50:48.631Z,62.60
2017-03-30T17:51:47.730Z,62.80